Time,TemperatureF,DewpointF,PressureIn,WindDirection,WindDirectionDegrees,WindSpeedMPH,WindSpeedGustMPH,Humidity,HourlyPrecipIn,Conditions,Clouds,dailyrainin,SoftwareType,DateUTC
2013-01-27 00:02:00,25.0,-99.9,-100.00,WSW,246,4.0,6.0,-999,-99.99,,,-99.99,,2013-01-27 07:02:00,
2013-01-27 00:14:00,25.0,-99.9,-100.00,West,278,4.0,8.0,-999,-99.99,,,-99.99,,2013-01-27 07:14:00,
2013-01-27 00:22:00,25.0,-99.9,-100.00,West,278,4.0,8.0,-999,-99.99,,,-99.99,,2013-01-27 07:22:00,
2013-01-27 00:32:00,25.0,-99.9,-100.00,West,278,4.0,8.0,-999,-99.99,,,-99.99,,2013-01-27 07:32:00,
2013-01-27 00:42:00,25.0,-99.9,-100.00,SSW,198,3.0,5.0,-999,-99.99,,,-99.99,,2013-01-27 07:42:00,
2013-01-27 00:52:00,25.0,-99.9,-100.00,SSW,198,3.0,5.0,-999,-99.99,,,-99.99,,2013-01-27 07:52:00,
2013-01-27 01:02:00,25.0,-99.9,-100.00,SW,227,3.0,5.0,-999,-99.99,,,-99.99,,2013-01-27 08:02:00,
2013-01-27 01:12:00,25.0,-99.9,-100.00,SW,218,5.0,8.0,-999,-99.99,,,-99.99,,2013-01-27 08:12:00,
2013-01-27 01:22:00,25.0,-99.9,-100.00,SW,218,5.0,8.0,-999,-99.99,,,-99.99,,2013-01-27 08:22:00,
2013-01-27 01:32:00,25.0,-99.9,-100.00,SW,218,5.0,8.0,-999,-99.99,,,-99.99,,2013-01-27 08:32:00,
2013-01-27 01:42:00,25.0,-99.9,-100.00,WSW,249,4.0,7.0,-999,-99.99,,,-99.99,,2013-01-27 08:42:00,
2013-01-27 01:52:00,25.0,-99.9,-100.00,WSW,249,4.0,7.0,-999,-99.99,,,-99.99,,2013-01-27 08:52:00,
2013-01-27 02:03:00,24.0,-99.9,-100.00,SW,235,3.0,6.0,-999,-99.99,,,-99.99,,2013-01-27 09:03:00,
2013-01-27 02:11:00,24.0,-99.9,-100.00,West,261,3.0,5.0,-999,-99.99,,,-99.99,,2013-01-27 09:11:00,
2013-01-27 02:22:00,24.0,-99.9,-100.00,West,261,3.0,5.0,-999,-99.99,,,-99.99,,2013-01-27 09:22:00,
2013-01-27 02:32:00,24.0,-99.9,-100.00,West,261,3.0,5.0,-999,-99.99,,,-99.99,,2013-01-27 09:32:00,
2013-01-27 02:42:00,24.0,-99.9,-100.00,WSW,240,2.0,3.0,-999,-99.99,,,-99.99,,2013-01-27 09:42:00,
2013-01-27 02:52:00,24.0,-99.9,-100.00,WSW,240,2.0,3.0,-999,-99.99,,,-99.99,,2013-01-27 09:52:00,
2013-01-27 03:02:00,24.0,-99.9,-100.00,SW,228,3.0,5.0,-999,-99.99,,,-99.99,,2013-01-27 10:02:00,
2013-01-27 03:11:00,24.0,-99.9,-100.00,WSW,256,3.0,4.0,-999,-99.99,,,-99.99,,2013-01-27 10:11:00,
2013-01-27 03:21:00,24.0,-99.9,-100.00,WSW,256,3.0,4.0,-999,-99.99,,,-99.99,,2013-01-27 10:21:00,
2013-01-27 03:32:00,24.0,-99.9,-100.00,WSW,256,3.0,4.0,-999,-99.99,,,-99.99,,2013-01-27 10:32:00,
2013-01-27 03:42:00,23.0,-99.9,-100.00,SSW,210,6.0,13.0,-999,-99.99,,,-99.99,,2013-01-27 10:42:00,
2013-01-27 03:52:00,23.0,-99.9,-100.00,SSW,210,6.0,13.0,-999,-99.99,,,-99.99,,2013-01-27 10:52:00,
2013-01-27 04:01:00,22.0,-99.9,-100.00,SSW,208,6.0,12.0,-999,-99.99,,,-99.99,,2013-01-27 11:01:00,
2013-01-27 04:11:00,22.0,-99.9,-100.00,SSW,200,5.0,6.0,-999,-99.99,,,-99.99,,2013-01-27 11:11:00,
2013-01-27 04:22:00,22.0,-99.9,-100.00,SSW,200,5.0,6.0,-999,-99.99,,,-99.99,,2013-01-27 11:22:00,
2013-01-27 04:32:00,22.0,-99.9,-100.00,SSW,200,5.0,6.0,-999,-99.99,,,-99.99,,2013-01-27 11:32:00,
2013-01-27 04:42:00,21.0,-99.9,-100.00,South,183,5.0,8.0,-999,-99.99,,,-99.99,,2013-01-27 11:42:00,
2013-01-27 04:52:00,21.0,-99.9,-100.00,South,183,5.0,8.0,-999,-99.99,,,-99.99,,2013-01-27 11:52:00,
2013-01-27 05:03:00,20.0,-99.9,-100.00,South,184,7.0,12.0,-999,-99.99,,,-99.99,,2013-01-27 12:03:00,
2013-01-27 05:12:00,20.0,-99.9,-100.00,SSE,168,8.0,12.0,-999,-99.99,,,-99.99,,2013-01-27 12:12:00,
2013-01-27 05:22:00,20.0,-99.9,-100.00,SSE,168,8.0,12.0,-999,-99.99,,,-99.99,,2013-01-27 12:22:00,
2013-01-27 05:33:00,20.0,-99.9,-100.00,SSE,168,8.0,12.0,-999,-99.99,,,-99.99,,2013-01-27 12:33:00,
2013-01-27 05:42:00,20.0,-99.9,-100.00,SSE,154,11.0,15.0,-999,-99.99,,,-99.99,,2013-01-27 12:42:00,
2013-01-27 05:53:00,20.0,-99.9,-100.00,SSE,154,11.0,15.0,-999,-99.99,,,-99.99,,2013-01-27 12:53:00,
2013-01-27 06:02:00,20.0,-99.9,-100.00,SSE,147,10.0,16.0,-999,-99.99,,,-99.99,,2013-01-27 13:02:00,
2013-01-27 06:12:00,20.0,-99.9,-100.00,SSE,147,9.0,17.0,-999,-99.99,,,-99.99,,2013-01-27 13:12:00,
2013-01-27 06:22:00,20.0,-99.9,-100.00,SSE,147,9.0,17.0,-999,-99.99,,,-99.99,,2013-01-27 13:22:00,
2013-01-27 06:32:00,20.0,-99.9,-100.00,SSE,147,9.0,17.0,-999,-99.99,,,-99.99,,2013-01-27 13:32:00,
2013-01-27 06:42:00,22.0,-99.9,-100.00,SSE,166,23.0,33.0,-999,-99.99,,,-99.99,,2013-01-27 13:42:00,
2013-01-27 06:52:00,22.0,-99.9,-100.00,SSE,166,23.0,33.0,-999,-99.99,,,-99.99,,2013-01-27 13:52:00,
2013-01-27 07:02:00,22.0,-99.9,-100.00,South,170,28.0,38.0,-999,-99.99,,,-99.99,,2013-01-27 14:02:00,
2013-01-27 07:12:00,22.0,-99.9,-100.00,South,174,31.0,45.0,-999,-99.99,,,-99.99,,2013-01-27 14:12:00,
2013-01-27 07:22:00,22.0,-99.9,-100.00,South,174,31.0,45.0,-999,-99.99,,,-99.99,,2013-01-27 14:22:00,
2013-01-27 07:33:00,22.0,-99.9,-100.00,South,174,31.0,45.0,-999,-99.99,,,-99.99,,2013-01-27 14:33:00,
2013-01-27 07:43:00,22.0,-99.9,-100.00,South,188,19.0,40.0,-999,-99.99,,,-99.99,,2013-01-27 14:43:00,
2013-01-27 07:53:00,22.0,-99.9,-100.00,South,188,19.0,40.0,-999,-99.99,,,-99.99,,2013-01-27 14:53:00,
2013-01-27 08:02:00,22.0,-99.9,-100.00,SSE,167,30.0,45.0,-999,-99.99,,,-99.99,,2013-01-27 15:02:00,
2013-01-27 08:12:00,22.0,-99.9,-100.00,South,172,29.0,41.0,-999,-99.99,,,-99.99,,2013-01-27 15:12:00,
2013-01-27 08:22:00,22.0,-99.9,-100.00,South,172,29.0,41.0,-999,-99.99,,,-99.99,,2013-01-27 15:22:00,
2013-01-27 08:33:00,22.0,-99.9,-100.00,South,172,29.0,41.0,-999,-99.99,,,-99.99,,2013-01-27 15:33:00,
2013-01-27 08:43:00,23.0,-99.9,-100.00,South,170,26.0,37.0,-999,-99.99,,,-99.99,,2013-01-27 15:43:00,
2013-01-27 08:53:00,23.0,-99.9,-100.00,SSE,162,22.0,35.0,-999,-99.99,,,-99.99,,2013-01-27 15:53:00,
2013-01-27 09:03:00,23.0,-99.9,-100.00,SSE,162,22.0,35.0,-999,-99.99,,,-99.99,,2013-01-27 16:03:00,
2013-01-27 09:12:00,23.0,-99.9,-100.00,South,169,25.0,38.0,-999,-99.99,,,-99.99,,2013-01-27 16:12:00,
2013-01-27 09:22:00,23.0,-99.9,-100.00,South,169,25.0,38.0,-999,-99.99,,,-99.99,,2013-01-27 16:22:00,
2013-01-27 09:33:00,23.0,-99.9,-100.00,South,169,25.0,38.0,-999,-99.99,,,-99.99,,2013-01-27 16:33:00,
2013-01-27 09:42:00,22.0,-99.9,-100.00,South,172,28.0,49.0,-999,-99.99,,,-99.99,,2013-01-27 16:42:00,
2013-01-27 09:53:00,22.0,-99.9,-100.00,South,172,28.0,49.0,-999,-99.99,,,-99.99,,2013-01-27 16:53:00,
2013-01-27 10:02:00,22.0,-99.9,-100.00,South,175,31.0,53.0,-999,-99.99,,,-99.99,,2013-01-27 17:02:00,
2013-01-27 10:12:00,23.0,-99.9,-100.00,South,173,29.0,48.0,-999,-99.99,,,-99.99,,2013-01-27 17:12:00,
2013-01-27 10:22:00,23.0,-99.9,-100.00,South,173,29.0,48.0,-999,-99.99,,,-99.99,,2013-01-27 17:22:00,
2013-01-27 10:33:00,23.0,-99.9,-100.00,South,173,29.0,48.0,-999,-99.99,,,-99.99,,2013-01-27 17:33:00,
2013-01-27 10:42:00,23.0,-99.9,-100.00,SSE,166,22.0,36.0,-999,-99.99,,,-99.99,,2013-01-27 17:42:00,
2013-01-27 10:53:00,23.0,-99.9,-100.00,SSE,166,22.0,36.0,-999,-99.99,,,-99.99,,2013-01-27 17:53:00,
2013-01-27 11:03:00,23.0,-99.9,-100.00,SSE,149,18.0,26.0,-999,-99.99,,,-99.99,,2013-01-27 18:03:00,
2013-01-27 11:12:00,24.0,-99.9,-100.00,SE,137,19.0,27.0,-999,-99.99,,,-99.99,,2013-01-27 18:12:00,
2013-01-27 11:23:00,24.0,-99.9,-100.00,SE,137,19.0,27.0,-999,-99.99,,,-99.99,,2013-01-27 18:23:00,
2013-01-27 11:33:00,24.0,-99.9,-100.00,SE,137,19.0,27.0,-999,-99.99,,,-99.99,,2013-01-27 18:33:00,
2013-01-27 11:42:00,23.0,-99.9,-100.00,SE,146,21.0,30.0,-999,-99.99,,,-99.99,,2013-01-27 18:42:00,
2013-01-27 11:53:00,23.0,-99.9,-100.00,SE,146,21.0,30.0,-999,-99.99,,,-99.99,,2013-01-27 18:53:00,
2013-01-27 12:02:00,23.0,-99.9,-100.00,SSE,158,33.0,53.0,-999,-99.99,,,-99.99,,2013-01-27 19:02:00,
2013-01-27 12:12:00,23.0,-99.9,-100.00,SSE,166,35.0,64.0,-999,-99.99,,,-99.99,,2013-01-27 19:12:00,
2013-01-27 12:22:00,23.0,-99.9,-100.00,SSE,166,35.0,64.0,-999,-99.99,,,-99.99,,2013-01-27 19:22:00,
2013-01-27 12:33:00,23.0,-99.9,-100.00,SSE,166,35.0,64.0,-999,-99.99,,,-99.99,,2013-01-27 19:33:00,
2013-01-27 12:42:00,23.0,-99.9,-100.00,SSE,164,37.0,60.0,-999,-99.99,,,-99.99,,2013-01-27 19:42:00,
2013-01-27 12:52:00,23.0,-99.9,-100.00,SSE,164,37.0,60.0,-999,-99.99,,,-99.99,,2013-01-27 19:52:00,
2013-01-27 13:03:00,23.0,-99.9,-100.00,SSE,161,42.0,63.0,-999,-99.99,,,-99.99,,2013-01-27 20:03:00,
2013-01-27 13:12:00,23.0,-99.9,-100.00,SSE,162,42.0,69.0,-999,-99.99,,,-99.99,,2013-01-27 20:12:00,
2013-01-27 13:22:00,23.0,-99.9,-100.00,SSE,162,42.0,69.0,-999,-99.99,,,-99.99,,2013-01-27 20:22:00,
2013-01-27 13:33:00,23.0,-99.9,-100.00,SSE,162,42.0,69.0,-999,-99.99,,,-99.99,,2013-01-27 20:33:00,
2013-01-27 13:43:00,23.0,-99.9,-100.00,South,171,34.0,53.0,-999,-99.99,,,-99.99,,2013-01-27 20:43:00,
2013-01-27 13:52:00,23.0,-99.9,-100.00,South,171,34.0,53.0,-999,-99.99,,,-99.99,,2013-01-27 20:52:00,
2013-01-27 14:02:00,22.0,-99.9,-100.00,South,175,37.0,59.0,-999,-99.99,,,-99.99,,2013-01-27 21:02:00,
2013-01-27 14:12:00,22.0,-99.9,-100.00,South,176,33.0,50.0,-999,-99.99,,,-99.99,,2013-01-27 21:12:00,
2013-01-27 14:23:00,22.0,-99.9,-100.00,South,176,33.0,50.0,-999,-99.99,,,-99.99,,2013-01-27 21:23:00,
2013-01-27 14:33:00,22.0,-99.9,-100.00,South,176,33.0,50.0,-999,-99.99,,,-99.99,,2013-01-27 21:33:00,
2013-01-27 14:43:00,22.0,-99.9,-100.00,South,176,30.0,46.0,-999,-99.99,,,-99.99,,2013-01-27 21:43:00,
2013-01-27 14:52:00,22.0,-99.9,-100.00,South,176,30.0,46.0,-999,-99.99,,,-99.99,,2013-01-27 21:52:00,
2013-01-27 15:03:00,22.0,-99.9,-100.00,South,180,27.0,46.0,-999,-99.99,,,-99.99,,2013-01-27 22:03:00,
2013-01-27 15:12:00,22.0,-99.9,-100.00,South,172,27.0,46.0,-999,-99.99,,,-99.99,,2013-01-27 22:12:00,
2013-01-27 15:22:00,22.0,-99.9,-100.00,South,172,27.0,46.0,-999,-99.99,,,-99.99,,2013-01-27 22:22:00,
2013-01-27 15:33:00,22.0,-99.9,-100.00,South,172,27.0,46.0,-999,-99.99,,,-99.99,,2013-01-27 22:33:00,
2013-01-27 15:43:00,22.0,-99.9,-100.00,SSE,164,38.0,55.0,-999,-99.99,,,-99.99,,2013-01-27 22:43:00,
2013-01-27 15:52:00,21.0,-99.9,-100.00,SSE,157,41.0,69.0,-999,-99.99,,,-99.99,,2013-01-27 22:52:00,
2013-01-27 16:02:00,21.0,-99.9,-100.00,SSE,157,41.0,69.0,-999,-99.99,,,-99.99,,2013-01-27 23:02:00,
2013-01-27 16:12:00,21.0,-99.9,-100.00,SSE,160,38.0,59.0,-999,-99.99,,,-99.99,,2013-01-27 23:12:00,
2013-01-27 16:22:00,21.0,-99.9,-100.00,SSE,160,38.0,59.0,-999,-99.99,,,-99.99,,2013-01-27 23:22:00,
2013-01-27 16:32:00,21.0,-99.9,-100.00,SSE,160,38.0,59.0,-999,-99.99,,,-99.99,,2013-01-27 23:32:00,
2013-01-27 16:42:00,21.0,-99.9,-100.00,South,171,29.0,54.0,-999,-99.99,,,-99.99,,2013-01-27 23:42:00,
2013-01-27 16:53:00,22.0,-99.9,-100.00,SSW,195,22.0,35.0,-999,-99.99,,,-99.99,,2013-01-27 23:53:00,
2013-01-27 17:02:00,22.0,-99.9,-100.00,SSW,195,22.0,35.0,-999,-99.99,,,-99.99,,2013-01-28 00:02:00,
2013-01-27 17:12:00,21.0,-99.9,-100.00,SSW,209,19.0,40.0,-999,-99.99,,,-99.99,,2013-01-28 00:12:00,
2013-01-27 17:22:00,21.0,-99.9,-100.00,SSW,209,19.0,40.0,-999,-99.99,,,-99.99,,2013-01-28 00:22:00,
2013-01-27 17:33:00,21.0,-99.9,-100.00,SSW,209,19.0,40.0,-999,-99.99,,,-99.99,,2013-01-28 00:33:00,
2013-01-27 17:42:00,17.0,-99.9,-100.00,WSW,248,17.0,29.0,-999,-99.99,,,-99.99,,2013-01-28 00:42:00,
2013-01-27 17:52:00,15.0,-99.9,-100.00,WSW,246,14.0,25.0,-999,-99.99,,,-99.99,,2013-01-28 00:52:00,
2013-01-27 18:02:00,15.0,-99.9,-100.00,WSW,246,14.0,25.0,-999,-99.99,,,-99.99,,2013-01-28 01:02:00,
2013-01-27 18:12:00,14.0,-99.9,-100.00,West,261,10.0,16.0,-999,-99.99,,,-99.99,,2013-01-28 01:12:00,
2013-01-27 18:22:00,14.0,-99.9,-100.00,West,261,10.0,16.0,-999,-99.99,,,-99.99,,2013-01-28 01:22:00,
2013-01-27 18:33:00,14.0,-99.9,-100.00,West,261,10.0,16.0,-999,-99.99,,,-99.99,,2013-01-28 01:33:00,
2013-01-27 18:43:00,13.0,-99.9,-100.00,West,266,11.0,20.0,-999,-99.99,,,-99.99,,2013-01-28 01:43:00,
2013-01-27 18:52:00,13.0,-99.9,-100.00,West,266,11.0,20.0,-999,-99.99,,,-99.99,,2013-01-28 01:52:00,
2013-01-27 19:02:00,13.0,-99.9,-100.00,WSW,258,11.0,16.0,-999,-99.99,,,-99.99,,2013-01-28 02:02:00,
2013-01-27 19:12:00,13.0,-99.9,-100.00,West,275,9.0,16.0,-999,-99.99,,,-99.99,,2013-01-28 02:12:00,
2013-01-27 19:22:00,13.0,-99.9,-100.00,West,275,9.0,16.0,-999,-99.99,,,-99.99,,2013-01-28 02:22:00,
2013-01-27 19:32:00,13.0,-99.9,-100.00,West,275,9.0,16.0,-999,-99.99,,,-99.99,,2013-01-28 02:32:00,
2013-01-27 19:42:00,12.0,-99.9,-100.00,West,281,11.0,19.0,-999,-99.99,,,-99.99,,2013-01-28 02:42:00,
2013-01-27 19:53:00,12.0,-99.9,-100.00,West,281,11.0,19.0,-999,-99.99,,,-99.99,,2013-01-28 02:53:00,
2013-01-27 20:02:00,12.0,-99.9,-100.00,West,281,10.0,15.0,-999,-99.99,,,-99.99,,2013-01-28 03:02:00,
2013-01-27 20:12:00,11.0,-99.9,-100.00,WNW,288,7.0,13.0,-999,-99.99,,,-99.99,,2013-01-28 03:12:00,
2013-01-27 20:22:00,11.0,-99.9,-100.00,WNW,288,7.0,13.0,-999,-99.99,,,-99.99,,2013-01-28 03:22:00,
2013-01-27 20:32:00,11.0,-99.9,-100.00,WNW,288,7.0,13.0,-999,-99.99,,,-99.99,,2013-01-28 03:32:00,
2013-01-27 20:42:00,12.0,-99.9,-100.00,WNW,287,9.0,13.0,-999,-99.99,,,-99.99,,2013-01-28 03:42:00,
2013-01-27 20:53:00,12.0,-99.9,-100.00,WNW,287,9.0,13.0,-999,-99.99,,,-99.99,,2013-01-28 03:53:00,
2013-01-27 21:02:00,11.0,-99.9,-100.00,West,279,11.0,15.0,-999,-99.99,,,-99.99,,2013-01-28 04:02:00,
2013-01-27 21:12:00,11.0,-99.9,-100.00,West,272,12.0,15.0,-999,-99.99,,,-99.99,,2013-01-28 04:12:00,
2013-01-27 21:22:00,11.0,-99.9,-100.00,West,272,12.0,15.0,-999,-99.99,,,-99.99,,2013-01-28 04:22:00,
2013-01-27 21:32:00,11.0,-99.9,-100.00,West,272,12.0,15.0,-999,-99.99,,,-99.99,,2013-01-28 04:32:00,
2013-01-27 21:42:00,11.0,-99.9,-100.00,West,271,12.0,15.0,-999,-99.99,,,-99.99,,2013-01-28 04:42:00,
2013-01-27 21:52:00,11.0,-99.9,-100.00,West,271,12.0,15.0,-999,-99.99,,,-99.99,,2013-01-28 04:52:00,
2013-01-27 22:04:00,11.0,-99.9,-100.00,West,273,11.0,17.0,-999,-99.99,,,-99.99,,2013-01-28 05:04:00,
2013-01-27 22:12:00,11.0,-99.9,-100.00,West,277,10.0,13.0,-999,-99.99,,,-99.99,,2013-01-28 05:12:00,
2013-01-27 22:22:00,11.0,-99.9,-100.00,West,277,10.0,13.0,-999,-99.99,,,-99.99,,2013-01-28 05:22:00,
2013-01-27 22:32:00,11.0,-99.9,-100.00,West,277,10.0,13.0,-999,-99.99,,,-99.99,,2013-01-28 05:32:00,
2013-01-27 22:42:00,10.0,-99.9,-100.00,West,275,12.0,16.0,-999,-99.99,,,-99.99,,2013-01-28 05:42:00,
2013-01-27 22:53:00,10.0,-99.9,-100.00,West,275,12.0,16.0,-999,-99.99,,,-99.99,,2013-01-28 05:53:00,
2013-01-27 23:02:00,10.0,-99.9,-100.00,West,271,13.0,16.0,-999,-99.99,,,-99.99,,2013-01-28 06:02:00,
2013-01-27 23:12:00,10.0,-99.9,-100.00,West,264,13.0,15.0,-999,-99.99,,,-99.99,,2013-01-28 06:12:00,
2013-01-27 23:22:00,10.0,-99.9,-100.00,West,264,13.0,15.0,-999,-99.99,,,-99.99,,2013-01-28 06:22:00,
2013-01-27 23:33:00,10.0,-99.9,-100.00,West,264,13.0,15.0,-999,-99.99,,,-99.99,,2013-01-28 06:33:00,
2013-01-27 23:42:00,10.0,-99.9,-100.00,West,259,12.0,14.0,-999,-99.99,,,-99.99,,2013-01-28 06:42:00,
2013-01-27 23:52:00,10.0,-99.9,-100.00,West,259,12.0,14.0,-999,-99.99,,,-99.99,,2013-01-28 06:52:00,